sensor_id;sensor_type;location;lat;lon;timestamp;P1;durP1;ratioP1;P2;durP2;ratioP2
10721;SDS011;5412;59.450;18.124;2023-12-20T00:01:04;6.03;;;2.23;;
10721;SDS011;5412;59.450;18.124;2023-12-20T00:03:30;4.63;;;1.80;;
10721;SDS011;5412;59.450;18.124;2023-12-20T00:05:55;7.27;;;1.90;;
10721;SDS011;5412;59.450;18.124;2023-12-20T00:08:21;5.77;;;1.80;;
10721;SDS011;5412;59.450;18.124;2023-12-20T00:10:47;7.97;;;2.00;;
10721;SDS011;5412;59.450;18.124;2023-12-20T00:13:12;7.57;;;1.80;;
10721;SDS011;5412;59.450;18.124;2023-12-20T00:15:38;9.13;;;2.00;;
10721;SDS011;5412;59.450;18.124;2023-12-20T00:18:04;7.57;;;2.27;;
10721;SDS011;5412;59.450;18.124;2023-12-20T00:20:30;8.37;;;1.90;;
10721;SDS011;5412;59.450;18.124;2023-12-20T00:22:56;7.03;;;1.70;;
10721;SDS011;5412;59.450;18.124;2023-12-20T00:25:23;5.63;;;1.57;;
10721;SDS011;5412;59.450;18.124;2023-12-20T00:27:49;11.07;;;1.70;;
10721;SDS011;5412;59.450;18.124;2023-12-20T00:30:14;6.53;;;2.33;;
10721;SDS011;5412;59.450;18.124;2023-12-20T00:32:40;6.37;;;3.10;;
10721;SDS011;5412;59.450;18.124;2023-12-20T00:35:14;8.97;;;2.30;;
10721;SDS011;5412;59.450;18.124;2023-12-20T00:37:40;6.17;;;1.53;;
10721;SDS011;5412;59.450;18.124;2023-12-20T00:40:06;8.67;;;2.17;;
10721;SDS011;5412;59.450;18.124;2023-12-20T00:42:32;10.53;;;2.07;;
10721;SDS011;5412;59.450;18.124;2023-12-20T00:44:59;10.83;;;1.90;;
10721;SDS011;5412;59.450;18.124;2023-12-20T00:47:25;7.87;;;1.93;;
10721;SDS011;5412;59.450;18.124;2023-12-20T00:49:52;12.47;;;2.33;;
10721;SDS011;5412;59.450;18.124;2023-12-20T00:52:18;7.90;;;2.03;;
10721;SDS011;5412;59.450;18.124;2023-12-20T00:54:44;10.23;;;2.03;;
10721;SDS011;5412;59.450;18.124;2023-12-20T00:57:10;13.70;;;2.40;;
10721;SDS011;5412;59.450;18.124;2023-12-20T00:59:36;8.30;;;1.80;;
10721;SDS011;5412;59.450;18.124;2023-12-20T01:02:04;12.70;;;1.63;;
10721;SDS011;5412;59.450;18.124;2023-12-20T01:04:30;10.50;;;1.60;;
10721;SDS011;5412;59.450;18.124;2023-12-20T01:06:59;9.13;;;2.00;;
10721;SDS011;5412;59.450;18.124;2023-12-20T01:09:28;7.73;;;2.00;;
10721;SDS011;5412;59.450;18.124;2023-12-20T01:11:53;8.37;;;1.83;;
10721;SDS011;5412;59.450;18.124;2023-12-20T01:14:19;10.47;;;2.57;;
10721;SDS011;5412;59.450;18.124;2023-12-20T01:16:45;7.87;;;1.97;;
10721;SDS011;5412;59.450;18.124;2023-12-20T01:19:11;7.63;;;1.90;;
10721;SDS011;5412;59.450;18.124;2023-12-20T01:21:38;9.93;;;2.23;;
10721;SDS011;5412;59.450;18.124;2023-12-20T01:24:04;10.30;;;1.80;;
10721;SDS011;5412;59.450;18.124;2023-12-20T01:26:32;10.13;;;2.03;;
10721;SDS011;5412;59.450;18.124;2023-12-20T01:28:58;8.57;;;1.87;;
10721;SDS011;5412;59.450;18.124;2023-12-20T01:31:24;8.87;;;2.40;;
10721;SDS011;5412;59.450;18.124;2023-12-20T01:33:49;10.70;;;1.93;;
10721;SDS011;5412;59.450;18.124;2023-12-20T01:36:15;10.63;;;2.63;;
10721;SDS011;5412;59.450;18.124;2023-12-20T01:38:41;8.43;;;2.10;;
10721;SDS011;5412;59.450;18.124;2023-12-20T01:41:06;5.87;;;1.83;;
10721;SDS011;5412;59.450;18.124;2023-12-20T01:43:32;9.27;;;2.13;;
10721;SDS011;5412;59.450;18.124;2023-12-20T01:45:58;8.03;;;1.90;;
10721;SDS011;5412;59.450;18.124;2023-12-20T01:48:24;6.87;;;1.77;;
10721;SDS011;5412;59.450;18.124;2023-12-20T01:50:51;8.37;;;2.30;;
10721;SDS011;5412;59.450;18.124;2023-12-20T01:53:17;8.77;;;1.77;;
10721;SDS011;5412;59.450;18.124;2023-12-20T01:55:45;6.77;;;1.70;;
10721;SDS011;5412;59.450;18.124;2023-12-20T01:58:12;9.97;;;2.10;;
10721;SDS011;5412;59.450;18.124;2023-12-20T02:00:39;7.13;;;1.70;;
10721;SDS011;5412;59.450;18.124;2023-12-20T02:03:05;9.70;;;2.23;;
10721;SDS011;5412;59.450;18.124;2023-12-20T02:05:31;8.63;;;1.73;;
10721;SDS011;5412;59.450;18.124;2023-12-20T02:07:59;6.97;;;1.90;;
10721;SDS011;5412;59.450;18.124;2023-12-20T02:10:25;8.77;;;2.00;;
10721;SDS011;5412;59.450;18.124;2023-12-20T02:12:51;10.33;;;2.20;;
10721;SDS011;5412;59.450;18.124;2023-12-20T02:15:17;9.00;;;2.07;;
10721;SDS011;5412;59.450;18.124;2023-12-20T02:17:43;10.20;;;2.23;;
10721;SDS011;5412;59.450;18.124;2023-12-20T02:20:10;7.37;;;1.70;;
10721;SDS011;5412;59.450;18.124;2023-12-20T02:22:36;7.97;;;2.47;;
10721;SDS011;5412;59.450;18.124;2023-12-20T02:25:02;4.83;;;1.60;;
10721;SDS011;5412;59.450;18.124;2023-12-20T02:27:27;13.03;;;2.80;;
10721;SDS011;5412;59.450;18.124;2023-12-20T02:29:54;7.93;;;1.70;;
10721;SDS011;5412;59.450;18.124;2023-12-20T02:32:20;6.13;;;2.30;;
10721;SDS011;5412;59.450;18.124;2023-12-20T02:34:47;9.30;;;1.80;;
10721;SDS011;5412;59.450;18.124;2023-12-20T02:37:13;8.87;;;2.13;;
10721;SDS011;5412;59.450;18.124;2023-12-20T02:39:39;9.00;;;1.70;;
10721;SDS011;5412;59.450;18.124;2023-12-20T02:42:05;11.03;;;2.07;;
10721;SDS011;5412;59.450;18.124;2023-12-20T02:44:30;11.33;;;2.10;;
10721;SDS011;5412;59.450;18.124;2023-12-20T02:46:56;13.97;;;2.43;;
10721;SDS011;5412;59.450;18.124;2023-12-20T02:49:22;13.93;;;2.67;;
10721;SDS011;5412;59.450;18.124;2023-12-20T02:51:47;9.87;;;2.07;;
10721;SDS011;5412;59.450;18.124;2023-12-20T02:54:13;9.53;;;1.97;;
10721;SDS011;5412;59.450;18.124;2023-12-20T02:56:39;6.03;;;1.97;;
10721;SDS011;5412;59.450;18.124;2023-12-20T02:59:05;6.63;;;1.70;;
10721;SDS011;5412;59.450;18.124;2023-12-20T03:01:31;12.33;;;2.17;;
10721;SDS011;5412;59.450;18.124;2023-12-20T03:03:57;11.63;;;2.13;;
10721;SDS011;5412;59.450;18.124;2023-12-20T03:06:22;12.20;;;2.57;;
10721;SDS011;5412;59.450;18.124;2023-12-20T03:08:48;11.83;;;2.90;;
10721;SDS011;5412;59.450;18.124;2023-12-20T03:11:14;10.47;;;2.00;;
10721;SDS011;5412;59.450;18.124;2023-12-20T03:13:40;10.93;;;1.80;;
10721;SDS011;5412;59.450;18.124;2023-12-20T03:16:09;15.20;;;2.23;;
10721;SDS011;5412;59.450;18.124;2023-12-20T03:18:38;7.70;;;2.13;;
10721;SDS011;5412;59.450;18.124;2023-12-20T03:21:04;9.13;;;1.70;;
10721;SDS011;5412;59.450;18.124;2023-12-20T03:23:31;8.60;;;1.83;;
10721;SDS011;5412;59.450;18.124;2023-12-20T03:25:58;5.93;;;2.47;;
10721;SDS011;5412;59.450;18.124;2023-12-20T03:28:25;8.13;;;2.20;;
10721;SDS011;5412;59.450;18.124;2023-12-20T03:30:51;11.53;;;2.23;;
10721;SDS011;5412;59.450;18.124;2023-12-20T03:33:17;9.23;;;1.70;;
10721;SDS011;5412;59.450;18.124;2023-12-20T03:35:42;7.37;;;2.20;;
10721;SDS011;5412;59.450;18.124;2023-12-20T03:38:08;10.90;;;2.40;;
10721;SDS011;5412;59.450;18.124;2023-12-20T03:40:34;12.63;;;3.23;;
10721;SDS011;5412;59.450;18.124;2023-12-20T03:43:00;8.83;;;1.80;;
10721;SDS011;5412;59.450;18.124;2023-12-20T03:45:26;10.73;;;2.50;;
10721;SDS011;5412;59.450;18.124;2023-12-20T03:47:51;5.33;;;1.87;;
10721;SDS011;5412;59.450;18.124;2023-12-20T03:50:25;12.67;;;2.13;;
10721;SDS011;5412;59.450;18.124;2023-12-20T03:52:51;8.73;;;1.87;;
10721;SDS011;5412;59.450;18.124;2023-12-20T03:55:17;10.47;;;2.13;;
10721;SDS011;5412;59.450;18.124;2023-12-20T03:57:43;9.23;;;2.07;;
10721;SDS011;5412;59.450;18.124;2023-12-20T04:00:08;8.27;;;1.73;;
10721;SDS011;5412;59.450;18.124;2023-12-20T04:02:38;5.13;;;1.80;;
10721;SDS011;5412;59.450;18.124;2023-12-20T04:05:05;10.67;;;2.30;;
10721;SDS011;5412;59.450;18.124;2023-12-20T04:07:31;10.17;;;2.90;;
10721;SDS011;5412;59.450;18.124;2023-12-20T04:09:57;4.83;;;1.87;;
10721;SDS011;5412;59.450;18.124;2023-12-20T04:12:22;8.03;;;1.90;;
10721;SDS011;5412;59.450;18.124;2023-12-20T04:14:48;9.77;;;1.73;;
10721;SDS011;5412;59.450;18.124;2023-12-20T04:17:15;7.13;;;1.93;;
10721;SDS011;5412;59.450;18.124;2023-12-20T04:19:41;4.90;;;2.43;;
10721;SDS011;5412;59.450;18.124;2023-12-20T04:22:07;8.87;;;2.27;;
10721;SDS011;5412;59.450;18.124;2023-12-20T04:24:33;14.03;;;2.60;;
10721;SDS011;5412;59.450;18.124;2023-12-20T04:26:58;8.40;;;2.43;;
10721;SDS011;5412;59.450;18.124;2023-12-20T04:29:24;8.37;;;2.07;;
10721;SDS011;5412;59.450;18.124;2023-12-20T04:31:50;12.07;;;2.33;;
10721;SDS011;5412;59.450;18.124;2023-12-20T04:34:16;7.17;;;2.17;;
10721;SDS011;5412;59.450;18.124;2023-12-20T04:36:43;6.27;;;2.30;;
10721;SDS011;5412;59.450;18.124;2023-12-20T04:39:09;10.70;;;2.20;;
10721;SDS011;5412;59.450;18.124;2023-12-20T04:41:35;14.53;;;2.27;;
10721;SDS011;5412;59.450;18.124;2023-12-20T04:44:01;8.03;;;2.43;;
10721;SDS011;5412;59.450;18.124;2023-12-20T04:46:27;10.37;;;2.50;;
10721;SDS011;5412;59.450;18.124;2023-12-20T04:48:52;7.97;;;1.70;;
10721;SDS011;5412;59.450;18.124;2023-12-20T04:51:18;6.03;;;1.77;;
10721;SDS011;5412;59.450;18.124;2023-12-20T04:53:44;6.23;;;1.37;;
10721;SDS011;5412;59.450;18.124;2023-12-20T04:56:09;7.43;;;1.50;;
10721;SDS011;5412;59.450;18.124;2023-12-20T04:58:35;9.87;;;1.83;;
10721;SDS011;5412;59.450;18.124;2023-12-20T05:01:01;8.53;;;1.50;;
10721;SDS011;5412;59.450;18.124;2023-12-20T05:03:28;9.13;;;1.73;;
10721;SDS011;5412;59.450;18.124;2023-12-20T05:05:54;11.43;;;2.00;;
10721;SDS011;5412;59.450;18.124;2023-12-20T05:08:19;6.47;;;2.20;;
10721;SDS011;5412;59.450;18.124;2023-12-20T05:10:45;7.97;;;2.10;;
10721;SDS011;5412;59.450;18.124;2023-12-20T05:13:11;7.00;;;1.93;;
10721;SDS011;5412;59.450;18.124;2023-12-20T05:15:36;7.13;;;1.70;;
10721;SDS011;5412;59.450;18.124;2023-12-20T05:18:02;7.90;;;1.60;;
10721;SDS011;5412;59.450;18.124;2023-12-20T05:20:28;6.20;;;2.10;;
10721;SDS011;5412;59.450;18.124;2023-12-20T05:22:54;6.33;;;1.63;;
10721;SDS011;5412;59.450;18.124;2023-12-20T05:25:19;6.40;;;1.80;;
10721;SDS011;5412;59.450;18.124;2023-12-20T05:27:45;7.13;;;1.63;;
10721;SDS011;5412;59.450;18.124;2023-12-20T05:30:11;9.27;;;1.90;;
10721;SDS011;5412;59.450;18.124;2023-12-20T05:32:36;5.87;;;1.50;;
10721;SDS011;5412;59.450;18.124;2023-12-20T05:35:02;9.00;;;2.20;;
10721;SDS011;5412;59.450;18.124;2023-12-20T05:37:28;6.93;;;1.87;;
10721;SDS011;5412;59.450;18.124;2023-12-20T05:39:54;6.53;;;1.67;;
10721;SDS011;5412;59.450;18.124;2023-12-20T05:42:19;6.87;;;1.60;;
10721;SDS011;5412;59.450;18.124;2023-12-20T05:44:45;6.73;;;1.90;;
10721;SDS011;5412;59.450;18.124;2023-12-20T05:47:11;10.80;;;1.67;;
10721;SDS011;5412;59.450;18.124;2023-12-20T05:49:36;3.87;;;1.67;;
10721;SDS011;5412;59.450;18.124;2023-12-20T05:52:02;5.50;;;1.67;;
10721;SDS011;5412;59.450;18.124;2023-12-20T05:54:28;5.13;;;1.43;;
10721;SDS011;5412;59.450;18.124;2023-12-20T05:56:54;8.13;;;1.80;;
10721;SDS011;5412;59.450;18.124;2023-12-20T05:59:19;5.67;;;2.00;;
10721;SDS011;5412;59.450;18.124;2023-12-20T06:01:45;3.50;;;1.60;;
10721;SDS011;5412;59.450;18.124;2023-12-20T06:04:11;7.07;;;1.77;;
10721;SDS011;5412;59.450;18.124;2023-12-20T06:06:43;6.60;;;2.20;;
10721;SDS011;5412;59.450;18.124;2023-12-20T06:09:09;8.33;;;2.10;;
10721;SDS011;5412;59.450;18.124;2023-12-20T06:11:35;5.10;;;1.87;;
10721;SDS011;5412;59.450;18.124;2023-12-20T06:14:01;4.07;;;2.10;;
10721;SDS011;5412;59.450;18.124;2023-12-20T06:16:27;6.87;;;2.70;;
10721;SDS011;5412;59.450;18.124;2023-12-20T06:18:52;7.57;;;3.03;;
10721;SDS011;5412;59.450;18.124;2023-12-20T06:21:18;8.80;;;2.47;;
10721;SDS011;5412;59.450;18.124;2023-12-20T06:23:44;8.67;;;2.50;;
10721;SDS011;5412;59.450;18.124;2023-12-20T06:26:10;3.80;;;1.90;;
10721;SDS011;5412;59.450;18.124;2023-12-20T06:28:35;6.80;;;2.60;;
10721;SDS011;5412;59.450;18.124;2023-12-20T06:31:01;4.90;;;2.27;;
10721;SDS011;5412;59.450;18.124;2023-12-20T06:33:28;8.07;;;2.47;;
10721;SDS011;5412;59.450;18.124;2023-12-20T06:35:54;5.67;;;1.90;;
10721;SDS011;5412;59.450;18.124;2023-12-20T06:38:20;7.87;;;2.73;;
10721;SDS011;5412;59.450;18.124;2023-12-20T06:40:45;22.30;;;2.93;;
10721;SDS011;5412;59.450;18.124;2023-12-20T06:43:12;7.83;;;2.10;;
10721;SDS011;5412;59.450;18.124;2023-12-20T06:45:38;62.63;;;4.60;;
10721;SDS011;5412;59.450;18.124;2023-12-20T06:48:04;6.77;;;2.77;;
10721;SDS011;5412;59.450;18.124;2023-12-20T06:50:30;38.63;;;3.93;;
10721;SDS011;5412;59.450;18.124;2023-12-20T06:52:56;28.90;;;2.83;;
10721;SDS011;5412;59.450;18.124;2023-12-20T06:55:21;4.47;;;2.57;;
10721;SDS011;5412;59.450;18.124;2023-12-20T06:57:48;10.33;;;2.23;;
10721;SDS011;5412;59.450;18.124;2023-12-20T07:00:14;7.33;;;2.70;;
10721;SDS011;5412;59.450;18.124;2023-12-20T07:02:40;9.37;;;2.80;;
10721;SDS011;5412;59.450;18.124;2023-12-20T07:05:06;5.63;;;2.40;;
10721;SDS011;5412;59.450;18.124;2023-12-20T07:07:32;41.07;;;3.40;;
10721;SDS011;5412;59.450;18.124;2023-12-20T07:09:57;18.87;;;2.90;;
10721;SDS011;5412;59.450;18.124;2023-12-20T07:12:23;6.53;;;3.30;;
10721;SDS011;5412;59.450;18.124;2023-12-20T07:14:49;8.03;;;3.00;;
10721;SDS011;5412;59.450;18.124;2023-12-20T07:17:14;28.07;;;3.97;;
10721;SDS011;5412;59.450;18.124;2023-12-20T07:19:40;14.53;;;3.43;;
10721;SDS011;5412;59.450;18.124;2023-12-20T07:22:07;23.63;;;2.93;;
10721;SDS011;5412;59.450;18.124;2023-12-20T07:24:33;23.87;;;3.17;;
10721;SDS011;5412;59.450;18.124;2023-12-20T07:26:59;42.50;;;4.27;;
10721;SDS011;5412;59.450;18.124;2023-12-20T07:29:25;13.77;;;2.53;;
10721;SDS011;5412;59.450;18.124;2023-12-20T07:31:52;5.83;;;2.53;;
10721;SDS011;5412;59.450;18.124;2023-12-20T07:34:19;8.77;;;3.13;;
10721;SDS011;5412;59.450;18.124;2023-12-20T07:36:45;31.17;;;3.70;;
10721;SDS011;5412;59.450;18.124;2023-12-20T07:39:10;20.27;;;3.30;;
10721;SDS011;5412;59.450;18.124;2023-12-20T07:41:36;20.90;;;3.57;;
10721;SDS011;5412;59.450;18.124;2023-12-20T07:44:03;68.80;;;5.47;;
10721;SDS011;5412;59.450;18.124;2023-12-20T07:46:30;17.57;;;3.80;;
10721;SDS011;5412;59.450;18.124;2023-12-20T07:48:55;23.37;;;4.37;;
10721;SDS011;5412;59.450;18.124;2023-12-20T07:51:21;15.23;;;4.07;;
10721;SDS011;5412;59.450;18.124;2023-12-20T07:53:47;12.27;;;3.47;;
10721;SDS011;5412;59.450;18.124;2023-12-20T07:56:16;13.80;;;3.90;;
10721;SDS011;5412;59.450;18.124;2023-12-20T07:58:43;17.27;;;4.23;;
10721;SDS011;5412;59.450;18.124;2023-12-20T08:01:09;8.77;;;3.50;;
10721;SDS011;5412;59.450;18.124;2023-12-20T08:03:35;8.73;;;4.07;;
10721;SDS011;5412;59.450;18.124;2023-12-20T08:06:04;19.10;;;4.57;;
10721;SDS011;5412;59.450;18.124;2023-12-20T08:08:30;9.93;;;4.00;;
10721;SDS011;5412;59.450;18.124;2023-12-20T08:10:59;10.53;;;3.40;;
10721;SDS011;5412;59.450;18.124;2023-12-20T08:13:25;22.80;;;3.97;;
10721;SDS011;5412;59.450;18.124;2023-12-20T08:15:52;10.97;;;3.60;;
10721;SDS011;5412;59.450;18.124;2023-12-20T08:18:18;11.00;;;4.00;;
10721;SDS011;5412;59.450;18.124;2023-12-20T08:20:44;20.57;;;4.53;;
10721;SDS011;5412;59.450;18.124;2023-12-20T08:23:09;8.73;;;4.00;;
10721;SDS011;5412;59.450;18.124;2023-12-20T08:25:35;9.87;;;4.33;;
10721;SDS011;5412;59.450;18.124;2023-12-20T08:28:02;37.70;;;5.93;;
10721;SDS011;5412;59.450;18.124;2023-12-20T08:30:28;59.07;;;6.40;;
10721;SDS011;5412;59.450;18.124;2023-12-20T08:32:54;131.03;;;9.00;;
10721;SDS011;5412;59.450;18.124;2023-12-20T08:35:20;9.17;;;4.63;;
10721;SDS011;5412;59.450;18.124;2023-12-20T08:37:46;44.23;;;6.07;;
10721;SDS011;5412;59.450;18.124;2023-12-20T08:40:12;9.13;;;4.60;;
10721;SDS011;5412;59.450;18.124;2023-12-20T08:42:38;11.57;;;5.27;;
10721;SDS011;5412;59.450;18.124;2023-12-20T08:45:04;11.40;;;5.97;;
10721;SDS011;5412;59.450;18.124;2023-12-20T08:47:30;7.93;;;4.70;;
10721;SDS011;5412;59.450;18.124;2023-12-20T08:49:56;18.93;;;5.63;;
10721;SDS011;5412;59.450;18.124;2023-12-20T08:52:24;11.47;;;6.00;;
10721;SDS011;5412;59.450;18.124;2023-12-20T08:54:52;13.40;;;5.70;;
10721;SDS011;5412;59.450;18.124;2023-12-20T08:57:21;12.27;;;5.80;;
10721;SDS011;5412;59.450;18.124;2023-12-20T08:59:48;10.57;;;6.03;;
10721;SDS011;5412;59.450;18.124;2023-12-20T09:02:14;13.20;;;6.07;;
10721;SDS011;5412;59.450;18.124;2023-12-20T09:04:41;11.00;;;5.87;;
10721;SDS011;5412;59.450;18.124;2023-12-20T09:07:07;11.27;;;5.60;;
10721;SDS011;5412;59.450;18.124;2023-12-20T09:10:03;9.87;;;5.87;;
10721;SDS011;5412;59.450;18.124;2023-12-20T09:12:31;13.10;;;5.83;;
10721;SDS011;5412;59.450;18.124;2023-12-20T09:15:20;14.07;;;6.37;;
10721;SDS011;5412;59.450;18.124;2023-12-20T09:18:26;10.33;;;5.70;;
10721;SDS011;5412;59.450;18.124;2023-12-20T09:21:14;12.53;;;6.43;;
10721;SDS011;5412;59.450;18.124;2023-12-20T09:23:39;12.70;;;6.53;;
10721;SDS011;5412;59.450;18.124;2023-12-20T09:26:05;13.40;;;6.20;;
10721;SDS011;5412;59.450;18.124;2023-12-20T09:28:31;11.20;;;6.60;;
10721;SDS011;5412;59.450;18.124;2023-12-20T09:31:01;13.37;;;7.23;;
10721;SDS011;5412;59.450;18.124;2023-12-20T09:33:28;11.33;;;6.67;;
10721;SDS011;5412;59.450;18.124;2023-12-20T09:35:53;18.10;;;6.57;;
10721;SDS011;5412;59.450;18.124;2023-12-20T09:38:19;13.83;;;6.63;;
10721;SDS011;5412;59.450;18.124;2023-12-20T09:40:45;13.07;;;6.77;;
10721;SDS011;5412;59.450;18.124;2023-12-20T09:43:11;19.37;;;7.77;;
10721;SDS011;5412;59.450;18.124;2023-12-20T09:45:40;14.10;;;6.77;;
10721;SDS011;5412;59.450;18.124;2023-12-20T09:48:10;11.33;;;6.57;;
10721;SDS011;5412;59.450;18.124;2023-12-20T09:50:37;14.23;;;6.80;;
10721;SDS011;5412;59.450;18.124;2023-12-20T09:53:02;15.67;;;6.97;;
10721;SDS011;5412;59.450;18.124;2023-12-20T09:55:34;13.73;;;7.30;;
10721;SDS011;5412;59.450;18.124;2023-12-20T09:58:01;17.13;;;7.17;;
10721;SDS011;5412;59.450;18.124;2023-12-20T10:00:27;11.63;;;6.63;;
10721;SDS011;5412;59.450;18.124;2023-12-20T10:02:59;14.40;;;6.93;;
10721;SDS011;5412;59.450;18.124;2023-12-20T10:05:26;12.80;;;7.10;;
10721;SDS011;5412;59.450;18.124;2023-12-20T10:07:58;15.77;;;7.10;;
10721;SDS011;5412;59.450;18.124;2023-12-20T10:10:24;12.50;;;6.80;;
10721;SDS011;5412;59.450;18.124;2023-12-20T10:13:06;12.87;;;6.20;;
10721;SDS011;5412;59.450;18.124;2023-12-20T10:15:33;10.13;;;5.97;;
10721;SDS011;5412;59.450;18.124;2023-12-20T10:18:00;8.77;;;5.03;;
10721;SDS011;5412;59.450;18.124;2023-12-20T10:20:27;8.17;;;5.33;;
10721;SDS011;5412;59.450;18.124;2023-12-20T10:22:54;11.10;;;5.83;;
10721;SDS011;5412;59.450;18.124;2023-12-20T10:25:20;7.93;;;4.93;;
10721;SDS011;5412;59.450;18.124;2023-12-20T10:27:46;11.83;;;4.93;;
10721;SDS011;5412;59.450;18.124;2023-12-20T10:30:13;9.70;;;5.10;;
10721;SDS011;5412;59.450;18.124;2023-12-20T10:32:39;9.83;;;5.50;;
10721;SDS011;5412;59.450;18.124;2023-12-20T10:35:06;9.63;;;4.20;;
10721;SDS011;5412;59.450;18.124;2023-12-20T10:37:35;9.10;;;4.90;;
10721;SDS011;5412;59.450;18.124;2023-12-20T10:40:03;6.67;;;4.13;;
10721;SDS011;5412;59.450;18.124;2023-12-20T10:42:31;11.10;;;5.57;;
10721;SDS011;5412;59.450;18.124;2023-12-20T10:44:59;7.03;;;4.90;;
10721;SDS011;5412;59.450;18.124;2023-12-20T10:47:25;10.97;;;4.30;;
10721;SDS011;5412;59.450;18.124;2023-12-20T10:49:54;9.07;;;4.83;;
10721;SDS011;5412;59.450;18.124;2023-12-20T10:52:23;8.77;;;4.30;;
10721;SDS011;5412;59.450;18.124;2023-12-20T10:54:49;7.47;;;4.40;;
10721;SDS011;5412;59.450;18.124;2023-12-20T10:57:15;7.53;;;4.17;;
10721;SDS011;5412;59.450;18.124;2023-12-20T10:59:44;5.63;;;3.57;;
10721;SDS011;5412;59.450;18.124;2023-12-20T11:02:14;7.80;;;3.53;;
10721;SDS011;5412;59.450;18.124;2023-12-20T11:10:24;8.13;;;4.07;;
10721;SDS011;5412;59.450;18.124;2023-12-20T11:13:10;10.20;;;3.90;;
10721;SDS011;5412;59.450;18.124;2023-12-20T11:15:42;7.57;;;3.37;;
10721;SDS011;5412;59.450;18.124;2023-12-20T11:18:11;6.00;;;3.43;;
10721;SDS011;5412;59.450;18.124;2023-12-20T11:20:37;7.20;;;3.50;;
10721;SDS011;5412;59.450;18.124;2023-12-20T11:23:08;5.70;;;3.23;;
10721;SDS011;5412;59.450;18.124;2023-12-20T11:25:53;9.97;;;3.83;;
10721;SDS011;5412;59.450;18.124;2023-12-20T11:28:23;10.87;;;3.80;;
10721;SDS011;5412;59.450;18.124;2023-12-20T11:33:16;8.13;;;2.87;;
10721;SDS011;5412;59.450;18.124;2023-12-20T11:35:46;5.67;;;3.47;;
10721;SDS011;5412;59.450;18.124;2023-12-20T11:38:14;6.97;;;3.23;;
10721;SDS011;5412;59.450;18.124;2023-12-20T11:40:43;4.83;;;2.60;;
10721;SDS011;5412;59.450;18.124;2023-12-20T11:43:09;4.40;;;2.90;;
10721;SDS011;5412;59.450;18.124;2023-12-20T11:45:35;5.57;;;2.60;;
10721;SDS011;5412;59.450;18.124;2023-12-20T11:48:01;9.90;;;2.73;;
10721;SDS011;5412;59.450;18.124;2023-12-20T11:50:28;5.90;;;2.43;;
10721;SDS011;5412;59.450;18.124;2023-12-20T11:52:55;6.53;;;2.50;;
10721;SDS011;5412;59.450;18.124;2023-12-20T11:55:22;8.93;;;2.60;;
10721;SDS011;5412;59.450;18.124;2023-12-20T11:57:49;6.20;;;2.40;;
10721;SDS011;5412;59.450;18.124;2023-12-20T12:00:15;3.50;;;1.93;;
10721;SDS011;5412;59.450;18.124;2023-12-20T12:02:42;5.47;;;2.40;;
10721;SDS011;5412;59.450;18.124;2023-12-20T12:05:08;3.63;;;2.43;;
10721;SDS011;5412;59.450;18.124;2023-12-20T12:07:34;5.07;;;2.23;;
10721;SDS011;5412;59.450;18.124;2023-12-20T12:10:00;14.63;;;2.67;;
10721;SDS011;5412;59.450;18.124;2023-12-20T12:12:26;6.00;;;1.93;;
10721;SDS011;5412;59.450;18.124;2023-12-20T12:14:53;4.27;;;1.93;;
10721;SDS011;5412;59.450;18.124;2023-12-20T12:17:19;3.63;;;1.50;;
10721;SDS011;5412;59.450;18.124;2023-12-20T12:19:45;2.93;;;1.63;;
10721;SDS011;5412;59.450;18.124;2023-12-20T12:22:12;5.27;;;2.10;;
10721;SDS011;5412;59.450;18.124;2023-12-20T12:24:42;2.37;;;1.70;;
10721;SDS011;5412;59.450;18.124;2023-12-20T12:27:09;3.30;;;1.93;;
10721;SDS011;5412;59.450;18.124;2023-12-20T12:29:35;6.23;;;1.83;;
10721;SDS011;5412;59.450;18.124;2023-12-20T12:32:05;2.27;;;1.57;;
10721;SDS011;5412;59.450;18.124;2023-12-20T12:34:32;2.33;;;1.80;;
10721;SDS011;5412;59.450;18.124;2023-12-20T12:37:02;2.23;;;1.67;;
10721;SDS011;5412;59.450;18.124;2023-12-20T12:39:29;2.47;;;1.60;;
10721;SDS011;5412;59.450;18.124;2023-12-20T12:41:55;1.97;;;1.40;;
10721;SDS011;5412;59.450;18.124;2023-12-20T12:44:22;2.73;;;1.40;;
10721;SDS011;5412;59.450;18.124;2023-12-20T12:46:50;3.00;;;1.80;;
10721;SDS011;5412;59.450;18.124;2023-12-20T12:49:18;4.47;;;1.60;;
10721;SDS011;5412;59.450;18.124;2023-12-20T12:51:46;2.97;;;1.60;;
10721;SDS011;5412;59.450;18.124;2023-12-20T12:54:12;3.00;;;1.47;;
10721;SDS011;5412;59.450;18.124;2023-12-20T12:56:40;2.97;;;1.63;;
10721;SDS011;5412;59.450;18.124;2023-12-20T12:59:06;2.60;;;1.37;;
10721;SDS011;5412;59.450;18.124;2023-12-20T13:01:32;2.53;;;1.47;;
10721;SDS011;5412;59.450;18.124;2023-12-20T13:03:57;3.47;;;1.37;;
10721;SDS011;5412;59.450;18.124;2023-12-20T13:06:23;1.30;;;1.17;;
10721;SDS011;5412;59.450;18.124;2023-12-20T13:08:49;2.50;;;1.70;;
10721;SDS011;5412;59.450;18.124;2023-12-20T13:11:15;2.77;;;1.50;;
10721;SDS011;5412;59.450;18.124;2023-12-20T13:13:40;2.67;;;1.47;;
10721;SDS011;5412;59.450;18.124;2023-12-20T13:16:06;1.90;;;1.30;;
10721;SDS011;5412;59.450;18.124;2023-12-20T13:18:32;2.40;;;1.40;;
10721;SDS011;5412;59.450;18.124;2023-12-20T13:20:58;1.23;;;1.10;;
10721;SDS011;5412;59.450;18.124;2023-12-20T13:23:24;1.73;;;1.30;;
10721;SDS011;5412;59.450;18.124;2023-12-20T13:25:49;3.57;;;1.30;;
10721;SDS011;5412;59.450;18.124;2023-12-20T13:28:15;3.80;;;1.20;;
10721;SDS011;5412;59.450;18.124;2023-12-20T13:30:41;1.40;;;1.13;;
10721;SDS011;5412;59.450;18.124;2023-12-20T13:33:06;4.27;;;2.57;;
10721;SDS011;5412;59.450;18.124;2023-12-20T13:35:33;6.83;;;3.53;;
10721;SDS011;5412;59.450;18.124;2023-12-20T13:37:59;6.17;;;1.90;;
10721;SDS011;5412;59.450;18.124;2023-12-20T13:40:25;2.90;;;1.70;;
10721;SDS011;5412;59.450;18.124;2023-12-20T13:42:51;4.67;;;1.80;;
10721;SDS011;5412;59.450;18.124;2023-12-20T13:45:17;2.63;;;1.63;;
10721;SDS011;5412;59.450;18.124;2023-12-20T13:47:43;2.63;;;1.77;;
10721;SDS011;5412;59.450;18.124;2023-12-20T13:50:09;1.83;;;1.40;;
10721;SDS011;5412;59.450;18.124;2023-12-20T13:52:35;3.70;;;1.80;;
10721;SDS011;5412;59.450;18.124;2023-12-20T13:55:01;3.33;;;1.80;;
10721;SDS011;5412;59.450;18.124;2023-12-20T13:57:27;1.80;;;1.70;;
10721;SDS011;5412;59.450;18.124;2023-12-20T13:59:54;2.50;;;1.50;;
10721;SDS011;5412;59.450;18.124;2023-12-20T14:02:22;2.93;;;1.70;;
10721;SDS011;5412;59.450;18.124;2023-12-20T14:04:48;6.03;;;1.70;;
10721;SDS011;5412;59.450;18.124;2023-12-20T14:07:14;2.63;;;1.43;;
10721;SDS011;5412;59.450;18.124;2023-12-20T14:09:40;2.30;;;1.40;;
10721;SDS011;5412;59.450;18.124;2023-12-20T14:12:10;4.37;;;2.53;;
10721;SDS011;5412;59.450;18.124;2023-12-20T14:14:37;3.27;;;1.70;;
10721;SDS011;5412;59.450;18.124;2023-12-20T14:17:03;4.93;;;1.77;;
10721;SDS011;5412;59.450;18.124;2023-12-20T14:19:29;4.10;;;1.70;;
10721;SDS011;5412;59.450;18.124;2023-12-20T14:21:55;2.53;;;1.60;;
10721;SDS011;5412;59.450;18.124;2023-12-20T14:24:20;5.27;;;1.70;;
10721;SDS011;5412;59.450;18.124;2023-12-20T14:26:46;3.03;;;1.60;;
10721;SDS011;5412;59.450;18.124;2023-12-20T14:29:12;2.43;;;1.53;;
10721;SDS011;5412;59.450;18.124;2023-12-20T14:31:37;3.50;;;1.80;;
10721;SDS011;5412;59.450;18.124;2023-12-20T14:34:04;2.87;;;1.87;;
10721;SDS011;5412;59.450;18.124;2023-12-20T14:36:30;2.40;;;1.60;;
10721;SDS011;5412;59.450;18.124;2023-12-20T14:38:56;6.17;;;1.73;;
10721;SDS011;5412;59.450;18.124;2023-12-20T14:41:22;3.93;;;1.50;;
10721;SDS011;5412;59.450;18.124;2023-12-20T14:43:49;2.53;;;1.50;;
10721;SDS011;5412;59.450;18.124;2023-12-20T14:46:17;3.87;;;1.60;;
10721;SDS011;5412;59.450;18.124;2023-12-20T14:48:42;4.50;;;1.60;;